sensor_id;sensor_type;location;lat;lon;timestamp;temperature;humidity
11961;DHT22;6040;49.358;11.140;2023-03-11T00:00:42;2.60;99.90
11961;DHT22;6040;49.358;11.140;2023-03-11T00:03:12;2.60;99.90
11961;DHT22;6040;49.358;11.140;2023-03-11T00:05:40;2.60;99.90
11961;DHT22;6040;49.358;11.140;2023-03-11T00:08:14;2.60;99.90
11961;DHT22;6040;49.358;11.140;2023-03-11T00:10:42;2.80;99.90
11961;DHT22;6040;49.358;11.140;2023-03-11T00:13:13;2.50;99.90
11961;DHT22;6040;49.358;11.140;2023-03-11T00:15:41;2.50;99.90
11961;DHT22;6040;49.358;11.140;2023-03-11T00:18:08;2.50;99.90
11961;DHT22;6040;49.358;11.140;2023-03-11T00:20:36;3.40;99.90
11961;DHT22;6040;49.358;11.140;2023-03-11T00:23:04;2.50;99.90
11961;DHT22;6040;49.358;11.140;2023-03-11T00:25:35;2.50;99.90
11961;DHT22;6040;49.358;11.140;2023-03-11T00:28:02;2.50;99.90
11961;DHT22;6040;49.358;11.140;2023-03-11T00:30:30;2.50;99.90
11961;DHT22;6040;49.358;11.140;2023-03-11T00:32:57;2.40;99.90
11961;DHT22;6040;49.358;11.140;2023-03-11T00:35:26;2.50;99.90
11961;DHT22;6040;49.358;11.140;2023-03-11T00:37:55;2.40;99.90
11961;DHT22;6040;49.358;11.140;2023-03-11T00:40:24;2.40;99.90
11961;DHT22;6040;49.358;11.140;2023-03-11T00:42:53;2.40;99.90
11961;DHT22;6040;49.358;11.140;2023-03-11T00:45:20;2.40;99.90
11961;DHT22;6040;49.358;11.140;2023-03-11T00:47:47;2.40;99.90
11961;DHT22;6040;49.358;11.140;2023-03-11T00:50:15;2.50;99.90
11961;DHT22;6040;49.358;11.140;2023-03-11T00:52:43;2.30;99.90
11961;DHT22;6040;49.358;11.140;2023-03-11T00:55:13;2.30;99.90
11961;DHT22;6040;49.358;11.140;2023-03-11T00:57:40;2.30;99.90
11961;DHT22;6040;49.358;11.140;2023-03-11T01:00:12;2.30;99.90
11961;DHT22;6040;49.358;11.140;2023-03-11T01:02:40;2.20;99.90
11961;DHT22;6040;49.358;11.140;2023-03-11T01:05:07;2.20;99.90
11961;DHT22;6040;49.358;11.140;2023-03-11T01:07:34;2.20;99.90
11961;DHT22;6040;49.358;11.140;2023-03-11T01:10:02;2.10;99.90
11961;DHT22;6040;49.358;11.140;2023-03-11T01:12:29;2.10;99.90
11961;DHT22;6040;49.358;11.140;2023-03-11T01:14:56;2.10;99.90
11961;DHT22;6040;49.358;11.140;2023-03-11T01:17:24;2.00;99.90
11961;DHT22;6040;49.358;11.140;2023-03-11T01:19:51;2.00;99.90
11961;DHT22;6040;49.358;11.140;2023-03-11T01:22:18;1.90;99.90
11961;DHT22;6040;49.358;11.140;2023-03-11T01:24:45;1.90;99.90
11961;DHT22;6040;49.358;11.140;2023-03-11T01:27:11;1.90;99.90
11961;DHT22;6040;49.358;11.140;2023-03-11T01:29:38;1.90;99.90
11961;DHT22;6040;49.358;11.140;2023-03-11T01:32:06;1.90;99.90
11961;DHT22;6040;49.358;11.140;2023-03-11T01:34:34;1.90;99.90
11961;DHT22;6040;49.358;11.140;2023-03-11T01:37:01;1.80;99.90
11961;DHT22;6040;49.358;11.140;2023-03-11T01:39:28;1.80;99.90
11961;DHT22;6040;49.358;11.140;2023-03-11T01:41:55;1.80;99.90
11961;DHT22;6040;49.358;11.140;2023-03-11T01:44:22;1.80;99.90
11961;DHT22;6040;49.358;11.140;2023-03-11T01:50:10;1.80;99.90
11961;DHT22;6040;49.358;11.140;2023-03-11T01:52:38;1.70;99.90
11961;DHT22;6040;49.358;11.140;2023-03-11T01:55:07;3.20;99.90
11961;DHT22;6040;49.358;11.140;2023-03-11T01:57:35;0.20;99.90
11961;DHT22;6040;49.358;11.140;2023-03-11T02:00:08;1.70;99.90
11961;DHT22;6040;49.358;11.140;2023-03-11T02:02:40;1.70;99.90
11961;DHT22;6040;49.358;11.140;2023-03-11T02:05:09;1.70;99.90
11961;DHT22;6040;49.358;11.140;2023-03-11T02:07:37;1.70;99.90
11961;DHT22;6040;49.358;11.140;2023-03-11T02:10:05;3.00;99.90
11961;DHT22;6040;49.358;11.140;2023-03-11T02:12:34;1.70;99.90
11961;DHT22;6040;49.358;11.140;2023-03-11T02:15:03;1.70;99.90
11961;DHT22;6040;49.358;11.140;2023-03-11T02:17:31;1.60;99.90
11961;DHT22;6040;49.358;11.140;2023-03-11T02:20:11;1.60;99.90
11961;DHT22;6040;49.358;11.140;2023-03-11T02:22:41;1.60;99.90
11961;DHT22;6040;49.358;11.140;2023-03-11T02:25:13;1.60;99.90
11961;DHT22;6040;49.358;11.140;2023-03-11T02:27:46;1.60;99.90
11961;DHT22;6040;49.358;11.140;2023-03-11T02:30:15;1.60;99.90
11961;DHT22;6040;49.358;11.140;2023-03-11T02:32:43;1.60;99.90
11961;DHT22;6040;49.358;11.140;2023-03-11T02:35:12;1.60;99.90
11961;DHT22;6040;49.358;11.140;2023-03-11T02:37:43;1.60;99.90
11961;DHT22;6040;49.358;11.140;2023-03-11T02:40:40;1.60;99.90
11961;DHT22;6040;49.358;11.140;2023-03-11T02:43:13;1.50;99.90
11961;DHT22;6040;49.358;11.140;2023-03-11T02:45:43;2.50;99.90
11961;DHT22;6040;49.358;11.140;2023-03-11T02:48:11;1.50;99.90
11961;DHT22;6040;49.358;11.140;2023-03-11T02:50:39;1.50;99.90
11961;DHT22;6040;49.358;11.140;2023-03-11T02:53:06;1.50;99.90
11961;DHT22;6040;49.358;11.140;2023-03-11T02:55:33;1.50;99.90
11961;DHT22;6040;49.358;11.140;2023-03-11T02:57:59;1.40;99.90
11961;DHT22;6040;49.358;11.140;2023-03-11T03:00:28;1.40;99.90
11961;DHT22;6040;49.358;11.140;2023-03-11T03:02:54;1.50;99.90
11961;DHT22;6040;49.358;11.140;2023-03-11T03:05:22;1.50;99.90
11961;DHT22;6040;49.358;11.140;2023-03-11T03:07:49;1.40;99.90
11961;DHT22;6040;49.358;11.140;2023-03-11T03:10:18;1.40;99.90
11961;DHT22;6040;49.358;11.140;2023-03-11T03:12:45;1.40;99.90
11961;DHT22;6040;49.358;11.140;2023-03-11T03:15:12;1.40;99.90
11961;DHT22;6040;49.358;11.140;2023-03-11T03:17:42;2.80;99.90
11961;DHT22;6040;49.358;11.140;2023-03-11T03:20:10;1.40;99.90
11961;DHT22;6040;49.358;11.140;2023-03-11T03:22:38;1.40;99.90
11961;DHT22;6040;49.358;11.140;2023-03-11T03:25:06;1.40;99.90
11961;DHT22;6040;49.358;11.140;2023-03-11T03:27:34;1.40;99.90
11961;DHT22;6040;49.358;11.140;2023-03-11T03:30:01;1.40;99.90
11961;DHT22;6040;49.358;11.140;2023-03-11T03:32:28;1.40;99.90
11961;DHT22;6040;49.358;11.140;2023-03-11T03:34:56;2.20;99.90
11961;DHT22;6040;49.358;11.140;2023-03-11T03:37:24;1.30;99.90
11961;DHT22;6040;49.358;11.140;2023-03-11T03:39:52;1.30;99.90
11961;DHT22;6040;49.358;11.140;2023-03-11T03:42:19;1.30;99.90
11961;DHT22;6040;49.358;11.140;2023-03-11T03:44:46;1.30;99.90
11961;DHT22;6040;49.358;11.140;2023-03-11T03:47:13;2.20;99.90
11961;DHT22;6040;49.358;11.140;2023-03-11T03:49:40;1.30;99.90
11961;DHT22;6040;49.358;11.140;2023-03-11T03:52:08;1.20;99.90
11961;DHT22;6040;49.358;11.140;2023-03-11T03:54:35;2.40;99.90
11961;DHT22;6040;49.358;11.140;2023-03-11T03:57:03;2.60;99.90
11961;DHT22;6040;49.358;11.140;2023-03-11T03:59:30;1.20;99.90
11961;DHT22;6040;49.358;11.140;2023-03-11T04:01:57;1.20;99.90
11961;DHT22;6040;49.358;11.140;2023-03-11T04:04:24;1.20;99.90
11961;DHT22;6040;49.358;11.140;2023-03-11T04:06:51;1.20;99.90
11961;DHT22;6040;49.358;11.140;2023-03-11T04:09:19;1.10;99.90
11961;DHT22;6040;49.358;11.140;2023-03-11T04:11:46;1.10;99.90
11961;DHT22;6040;49.358;11.140;2023-03-11T04:14:13;1.10;99.90
11961;DHT22;6040;49.358;11.140;2023-03-11T04:16:40;1.10;99.90
11961;DHT22;6040;49.358;11.140;2023-03-11T04:19:07;1.10;99.90
11961;DHT22;6040;49.358;11.140;2023-03-11T04:21:34;1.10;99.90
11961;DHT22;6040;49.358;11.140;2023-03-11T04:24:01;1.10;99.90
11961;DHT22;6040;49.358;11.140;2023-03-11T04:26:29;1.00;99.90
11961;DHT22;6040;49.358;11.140;2023-03-11T04:28:56;1.10;99.90
11961;DHT22;6040;49.358;11.140;2023-03-11T04:31:23;1.10;99.90
11961;DHT22;6040;49.358;11.140;2023-03-11T04:33:49;1.00;99.90
11961;DHT22;6040;49.358;11.140;2023-03-11T04:36:16;1.00;99.90
11961;DHT22;6040;49.358;11.140;2023-03-11T04:38:43;1.00;99.90
11961;DHT22;6040;49.358;11.140;2023-03-11T04:41:11;1.00;99.90
11961;DHT22;6040;49.358;11.140;2023-03-11T04:43:39;1.20;99.90
11961;DHT22;6040;49.358;11.140;2023-03-11T04:46:06;1.00;99.90
11961;DHT22;6040;49.358;11.140;2023-03-11T04:48:33;1.00;99.90
11961;DHT22;6040;49.358;11.140;2023-03-11T04:51:00;1.00;99.90
11961;DHT22;6040;49.358;11.140;2023-03-11T04:53:27;1.00;99.90
11961;DHT22;6040;49.358;11.140;2023-03-11T04:55:53;0.90;99.90
11961;DHT22;6040;49.358;11.140;2023-03-11T04:58:20;2.60;99.90
11961;DHT22;6040;49.358;11.140;2023-03-11T05:00:48;1.00;99.90
11961;DHT22;6040;49.358;11.140;2023-03-11T05:03:15;1.00;99.90
11961;DHT22;6040;49.358;11.140;2023-03-11T05:05:43;0.90;99.90
11961;DHT22;6040;49.358;11.140;2023-03-11T05:08:10;0.90;99.90
11961;DHT22;6040;49.358;11.140;2023-03-11T05:10:39;0.90;99.90
11961;DHT22;6040;49.358;11.140;2023-03-11T05:13:06;0.90;99.90
11961;DHT22;6040;49.358;11.140;2023-03-11T05:15:33;0.90;99.90
11961;DHT22;6040;49.358;11.140;2023-03-11T05:18:02;0.90;99.90
11961;DHT22;6040;49.358;11.140;2023-03-11T05:20:29;0.90;99.90
11961;DHT22;6040;49.358;11.140;2023-03-11T05:22:57;0.90;99.90
11961;DHT22;6040;49.358;11.140;2023-03-11T05:25:24;0.90;99.90
11961;DHT22;6040;49.358;11.140;2023-03-11T05:27:51;0.90;99.90
11961;DHT22;6040;49.358;11.140;2023-03-11T05:30:17;3.00;99.90
11961;DHT22;6040;49.358;11.140;2023-03-11T05:32:44;0.90;99.90
11961;DHT22;6040;49.358;11.140;2023-03-11T05:35:13;0.90;99.90
11961;DHT22;6040;49.358;11.140;2023-03-11T05:37:39;0.90;99.90
11961;DHT22;6040;49.358;11.140;2023-03-11T05:40:08;0.80;99.90
11961;DHT22;6040;49.358;11.140;2023-03-11T05:42:35;0.90;99.90
11961;DHT22;6040;49.358;11.140;2023-03-11T05:45:03;2.40;99.90
11961;DHT22;6040;49.358;11.140;2023-03-11T05:47:29;0.90;99.90
11961;DHT22;6040;49.358;11.140;2023-03-11T05:49:56;0.90;99.90
11961;DHT22;6040;49.358;11.140;2023-03-11T05:52:24;0.90;99.90
11961;DHT22;6040;49.358;11.140;2023-03-11T05:54:51;0.80;99.90
11961;DHT22;6040;49.358;11.140;2023-03-11T05:57:18;0.90;99.90
11961;DHT22;6040;49.358;11.140;2023-03-11T05:59:45;0.80;99.90
11961;DHT22;6040;49.358;11.140;2023-03-11T06:02:12;0.90;99.90
11961;DHT22;6040;49.358;11.140;2023-03-11T06:04:39;0.90;99.90
11961;DHT22;6040;49.358;11.140;2023-03-11T06:07:06;0.90;99.90
11961;DHT22;6040;49.358;11.140;2023-03-11T06:09:34;0.90;99.90
11961;DHT22;6040;49.358;11.140;2023-03-11T06:12:01;2.20;99.90
11961;DHT22;6040;49.358;11.140;2023-03-11T06:14:28;0.90;99.90
11961;DHT22;6040;49.358;11.140;2023-03-11T06:16:56;0.90;99.90
11961;DHT22;6040;49.358;11.140;2023-03-11T06:19:23;0.90;99.90
11961;DHT22;6040;49.358;11.140;2023-03-11T06:21:50;0.90;99.90
11961;DHT22;6040;49.358;11.140;2023-03-11T06:24:17;0.90;99.90
11961;DHT22;6040;49.358;11.140;2023-03-11T06:26:49;0.90;99.90
11961;DHT22;6040;49.358;11.140;2023-03-11T06:29:16;1.00;99.90
11961;DHT22;6040;49.358;11.140;2023-03-11T06:31:43;1.00;99.90
11961;DHT22;6040;49.358;11.140;2023-03-11T06:34:10;1.00;99.90
11961;DHT22;6040;49.358;11.140;2023-03-11T06:36:37;0.90;99.90
11961;DHT22;6040;49.358;11.140;2023-03-11T06:39:04;2.30;99.90
11961;DHT22;6040;49.358;11.140;2023-03-11T06:41:32;1.00;99.90
11961;DHT22;6040;49.358;11.140;2023-03-11T06:44:00;1.00;99.90
11961;DHT22;6040;49.358;11.140;2023-03-11T06:46:28;1.00;99.90
11961;DHT22;6040;49.358;11.140;2023-03-11T06:48:56;1.10;99.90
11961;DHT22;6040;49.358;11.140;2023-03-11T06:51:23;1.00;99.90
11961;DHT22;6040;49.358;11.140;2023-03-11T06:53:52;1.10;99.90
11961;DHT22;6040;49.358;11.140;2023-03-11T06:56:20;1.10;99.90
11961;DHT22;6040;49.358;11.140;2023-03-11T06:58:47;1.10;99.90
11961;DHT22;6040;49.358;11.140;2023-03-11T07:01:18;1.10;99.90
11961;DHT22;6040;49.358;11.140;2023-03-11T07:07:20;1.10;99.90
11961;DHT22;6040;49.358;11.140;2023-03-11T07:09:48;1.10;99.90
11961;DHT22;6040;49.358;11.140;2023-03-11T07:12:15;1.20;99.90
11961;DHT22;6040;49.358;11.140;2023-03-11T07:14:42;1.20;99.90
11961;DHT22;6040;49.358;11.140;2023-03-11T07:17:10;1.10;99.90
11961;DHT22;6040;49.358;11.140;2023-03-11T07:19:37;1.20;99.90
11961;DHT22;6040;49.358;11.140;2023-03-11T07:22:05;1.10;99.90
11961;DHT22;6040;49.358;11.140;2023-03-11T07:24:32;1.10;99.90
11961;DHT22;6040;49.358;11.140;2023-03-11T07:26:59;1.10;99.90
11961;DHT22;6040;49.358;11.140;2023-03-11T07:29:25;1.10;99.90
11961;DHT22;6040;49.358;11.140;2023-03-11T07:31:52;1.10;99.90
11961;DHT22;6040;49.358;11.140;2023-03-11T07:34:20;1.20;99.90
11961;DHT22;6040;49.358;11.140;2023-03-11T07:36:47;1.20;99.90
11961;DHT22;6040;49.358;11.140;2023-03-11T07:39:16;1.20;99.90
11961;DHT22;6040;49.358;11.140;2023-03-11T07:41:44;1.30;99.90
11961;DHT22;6040;49.358;11.140;2023-03-11T07:44:11;1.40;99.90
11961;DHT22;6040;49.358;11.140;2023-03-11T07:46:39;1.50;99.90
11961;DHT22;6040;49.358;11.140;2023-03-11T07:49:06;1.50;99.90
11961;DHT22;6040;49.358;11.140;2023-03-11T07:51:35;1.50;99.90
11961;DHT22;6040;49.358;11.140;2023-03-11T07:54:03;1.60;99.90
11961;DHT22;6040;49.358;11.140;2023-03-11T07:56:32;1.70;99.90
11961;DHT22;6040;49.358;11.140;2023-03-11T07:59:01;1.80;99.90
11961;DHT22;6040;49.358;11.140;2023-03-11T08:01:30;1.80;99.90
11961;DHT22;6040;49.358;11.140;2023-03-11T08:04:01;1.90;99.90
11961;DHT22;6040;49.358;11.140;2023-03-11T08:06:30;1.90;99.90
11961;DHT22;6040;49.358;11.140;2023-03-11T08:09:00;1.90;99.90
11961;DHT22;6040;49.358;11.140;2023-03-11T08:11:29;1.90;99.90
11961;DHT22;6040;49.358;11.140;2023-03-11T08:13:56;3.30;99.90
11961;DHT22;6040;49.358;11.140;2023-03-11T08:16:24;1.90;99.90
11961;DHT22;6040;49.358;11.140;2023-03-11T08:18:51;1.90;99.90
11961;DHT22;6040;49.358;11.140;2023-03-11T08:21:20;1.90;99.90
11961;DHT22;6040;49.358;11.140;2023-03-11T08:23:47;1.80;99.90
11961;DHT22;6040;49.358;11.140;2023-03-11T08:26:17;1.70;99.90
11961;DHT22;6040;49.358;11.140;2023-03-11T08:28:45;1.80;99.90
11961;DHT22;6040;49.358;11.140;2023-03-11T08:31:12;1.90;99.90
11961;DHT22;6040;49.358;11.140;2023-03-11T08:33:40;2.80;99.90
11961;DHT22;6040;49.358;11.140;2023-03-11T08:36:07;3.30;99.90
11961;DHT22;6040;49.358;11.140;2023-03-11T08:38:34;2.70;99.90
11961;DHT22;6040;49.358;11.140;2023-03-11T08:41:01;3.00;99.90
11961;DHT22;6040;49.358;11.140;2023-03-11T08:43:29;3.00;99.90
11961;DHT22;6040;49.358;11.140;2023-03-11T08:45:56;3.10;99.90
11961;DHT22;6040;49.358;11.140;2023-03-11T08:48:25;2.90;99.90
11961;DHT22;6040;49.358;11.140;2023-03-11T08:50:52;4.40;99.90
11961;DHT22;6040;49.358;11.140;2023-03-11T08:53:19;2.90;99.90
11961;DHT22;6040;49.358;11.140;2023-03-11T08:55:46;2.90;99.90
11961;DHT22;6040;49.358;11.140;2023-03-11T08:58:13;2.90;99.90
11961;DHT22;6040;49.358;11.140;2023-03-11T09:00:41;3.00;99.90
11961;DHT22;6040;49.358;11.140;2023-03-11T09:03:08;3.20;99.90
11961;DHT22;6040;49.358;11.140;2023-03-11T09:05:35;3.00;99.90
11961;DHT22;6040;49.358;11.140;2023-03-11T09:08:02;3.10;99.90
11961;DHT22;6040;49.358;11.140;2023-03-11T09:10:29;3.40;99.90
11961;DHT22;6040;49.358;11.140;2023-03-11T09:12:56;3.60;99.90
11961;DHT22;6040;49.358;11.140;2023-03-11T09:15:23;3.70;99.90
11961;DHT22;6040;49.358;11.140;2023-03-11T09:17:51;4.10;99.90
11961;DHT22;6040;49.358;11.140;2023-03-11T09:20:19;4.70;99.90
11961;DHT22;6040;49.358;11.140;2023-03-11T09:22:46;4.90;99.90
11961;DHT22;6040;49.358;11.140;2023-03-11T09:25:14;4.80;99.90
11961;DHT22;6040;49.358;11.140;2023-03-11T09:27:41;4.90;99.90
11961;DHT22;6040;49.358;11.140;2023-03-11T09:30:09;5.30;99.90
11961;DHT22;6040;49.358;11.140;2023-03-11T09:32:36;5.50;99.90
11961;DHT22;6040;49.358;11.140;2023-03-11T09:35:05;7.00;99.90
11961;DHT22;6040;49.358;11.140;2023-03-11T09:37:32;5.80;99.90
11961;DHT22;6040;49.358;11.140;2023-03-11T09:39:58;5.70;99.20
11961;DHT22;6040;49.358;11.140;2023-03-11T09:42:31;5.40;99.10
11961;DHT22;6040;49.358;11.140;2023-03-11T09:45:03;5.40;99.70
11961;DHT22;6040;49.358;11.140;2023-03-11T09:47:41;5.20;99.20
11961;DHT22;6040;49.358;11.140;2023-03-11T09:50:19;5.10;99.50
11961;DHT22;6040;49.358;11.140;2023-03-11T09:52:57;5.00;99.50
11961;DHT22;6040;49.358;11.140;2023-03-11T09:55:33;4.80;99.90
11961;DHT22;6040;49.358;11.140;2023-03-11T09:58:07;4.60;99.90
11961;DHT22;6040;49.358;11.140;2023-03-11T10:00:35;4.50;99.90
11961;DHT22;6040;49.358;11.140;2023-03-11T10:03:02;4.60;99.90
11961;DHT22;6040;49.358;11.140;2023-03-11T10:05:33;4.50;99.90
11961;DHT22;6040;49.358;11.140;2023-03-11T10:08:04;4.50;99.90
11961;DHT22;6040;49.358;11.140;2023-03-11T10:10:42;4.60;99.90
11961;DHT22;6040;49.358;11.140;2023-03-11T10:13:15;4.70;99.90
11961;DHT22;6040;49.358;11.140;2023-03-11T10:15:49;4.70;99.90
11961;DHT22;6040;49.358;11.140;2023-03-11T10:18:30;5.60;99.90
11961;DHT22;6040;49.358;11.140;2023-03-11T10:21:06;4.80;99.90
11961;DHT22;6040;49.358;11.140;2023-03-11T10:23:46;4.60;99.90
11961;DHT22;6040;49.358;11.140;2023-03-11T10:26:19;4.60;99.90
11961;DHT22;6040;49.358;11.140;2023-03-11T10:28:50;4.50;99.90
11961;DHT22;6040;49.358;11.140;2023-03-11T10:31:21;5.30;99.90
11961;DHT22;6040;49.358;11.140;2023-03-11T10:33:51;4.50;99.90
11961;DHT22;6040;49.358;11.140;2023-03-11T10:36:23;4.30;99.90
11961;DHT22;6040;49.358;11.140;2023-03-11T10:38:53;4.30;99.90
11961;DHT22;6040;49.358;11.140;2023-03-11T10:41:25;4.50;99.90
11961;DHT22;6040;49.358;11.140;2023-03-11T10:43:59;4.70;99.90
11961;DHT22;6040;49.358;11.140;2023-03-11T10:46:28;5.00;99.90
11961;DHT22;6040;49.358;11.140;2023-03-11T10:48:55;5.20;99.90
11961;DHT22;6040;49.358;11.140;2023-03-11T10:51:25;5.60;99.90
11961;DHT22;6040;49.358;11.140;2023-03-11T10:53:54;5.80;99.90
11961;DHT22;6040;49.358;11.140;2023-03-11T10:56:28;5.80;99.70
11961;DHT22;6040;49.358;11.140;2023-03-11T10:58:56;6.00;99.80
11961;DHT22;6040;49.358;11.140;2023-03-11T11:01:23;6.00;99.80
11961;DHT22;6040;49.358;11.140;2023-03-11T11:03:51;6.10;99.20
11961;DHT22;6040;49.358;11.140;2023-03-11T11:06:24;6.00;99.40
11961;DHT22;6040;49.358;11.140;2023-03-11T11:09:12;5.90;99.60
11961;DHT22;6040;49.358;11.140;2023-03-11T11:11:40;5.50;99.30
11961;DHT22;6040;49.358;11.140;2023-03-11T11:14:07;5.20;98.70
11961;DHT22;6040;49.358;11.140;2023-03-11T11:16:35;6.50;98.80
11961;DHT22;6040;49.358;11.140;2023-03-11T11:19:03;4.90;98.60
11961;DHT22;6040;49.358;11.140;2023-03-11T11:21:35;4.80;98.90
11961;DHT22;6040;49.358;11.140;2023-03-11T11:24:09;4.80;99.30
11961;DHT22;6040;49.358;11.140;2023-03-11T11:26:37;4.70;99.80
11961;DHT22;6040;49.358;11.140;2023-03-11T11:29:06;4.80;99.90
11961;DHT22;6040;49.358;11.140;2023-03-11T11:31:39;6.00;99.90
11961;DHT22;6040;49.358;11.140;2023-03-11T11:34:26;4.90;99.90
11961;DHT22;6040;49.358;11.140;2023-03-11T11:36:56;5.00;99.90
11961;DHT22;6040;49.358;11.140;2023-03-11T11:39:26;5.00;99.90
11961;DHT22;6040;49.358;11.140;2023-03-11T11:41:54;5.00;99.90
11961;DHT22;6040;49.358;11.140;2023-03-11T11:44:27;5.70;99.90
11961;DHT22;6040;49.358;11.140;2023-03-11T11:46:58;7.80;98.40
11961;DHT22;6040;49.358;11.140;2023-03-11T11:49:30;6.70;98.50
11961;DHT22;6040;49.358;11.140;2023-03-11T11:52:01;7.70;97.70
11961;DHT22;6040;49.358;11.140;2023-03-11T11:54:35;6.30;97.40
11961;DHT22;6040;49.358;11.140;2023-03-11T11:57:11;6.00;97.80
11961;DHT22;6040;49.358;11.140;2023-03-11T11:59:38;5.70;98.10
11961;DHT22;6040;49.358;11.140;2023-03-11T12:02:16;5.60;98.70
11961;DHT22;6040;49.358;11.140;2023-03-11T12:04:51;5.30;99.10
11961;DHT22;6040;49.358;11.140;2023-03-11T12:07:46;5.20;99.60
11961;DHT22;6040;49.358;11.140;2023-03-11T12:10:22;5.10;99.40
11961;DHT22;6040;49.358;11.140;2023-03-11T12:13:19;5.10;99.80
11961;DHT22;6040;49.358;11.140;2023-03-11T12:15:53;5.00;99.90
11961;DHT22;6040;49.358;11.140;2023-03-11T12:18:27;5.00;99.90
11961;DHT22;6040;49.358;11.140;2023-03-11T12:20:55;5.00;99.70
11961;DHT22;6040;49.358;11.140;2023-03-11T12:23:32;5.00;99.40
11961;DHT22;6040;49.358;11.140;2023-03-11T12:26:15;5.00;98.80
11961;DHT22;6040;49.358;11.140;2023-03-11T12:28:47;5.00;98.60
11961;DHT22;6040;49.358;11.140;2023-03-11T12:31:18;4.90;98.60
11961;DHT22;6040;49.358;11.140;2023-03-11T12:33:47;4.90;98.80
11961;DHT22;6040;49.358;11.140;2023-03-11T12:36:23;5.00;98.40
11961;DHT22;6040;49.358;11.140;2023-03-11T12:38:52;5.00;98.20
11961;DHT22;6040;49.358;11.140;2023-03-11T12:41:32;5.00;98.30
11961;DHT22;6040;49.358;11.140;2023-03-11T12:44:19;5.20;98.50
11961;DHT22;6040;49.358;11.140;2023-03-11T12:47:23;5.30;98.20
11961;DHT22;6040;49.358;11.140;2023-03-11T12:49:52;5.30;98.00
11961;DHT22;6040;49.358;11.140;2023-03-11T12:52:22;5.20;97.50
11961;DHT22;6040;49.358;11.140;2023-03-11T12:58:27;5.10;97.20
11961;DHT22;6040;49.358;11.140;2023-03-11T13:01:13;5.20;97.40
11961;DHT22;6040;49.358;11.140;2023-03-11T13:03:48;5.00;98.10
11961;DHT22;6040;49.358;11.140;2023-03-11T13:06:33;4.90;98.00
11961;DHT22;6040;49.358;11.140;2023-03-11T13:09:01;4.90;98.40
11961;DHT22;6040;49.358;11.140;2023-03-11T13:11:36;5.00;98.80
11961;DHT22;6040;49.358;11.140;2023-03-11T13:14:26;4.90;98.90
11961;DHT22;6040;49.358;11.140;2023-03-11T13:16:55;4.90;99.10
11961;DHT22;6040;49.358;11.140;2023-03-11T13:19:47;4.80;99.50
11961;DHT22;6040;49.358;11.140;2023-03-11T13:22:43;5.70;99.90
11961;DHT22;6040;49.358;11.140;2023-03-11T13:25:34;4.80;99.80
11961;DHT22;6040;49.358;11.140;2023-03-11T13:28:26;4.80;99.90
11961;DHT22;6040;49.358;11.140;2023-03-11T13:31:33;4.80;99.80
11961;DHT22;6040;49.358;11.140;2023-03-11T13:34:10;4.80;99.90
11961;DHT22;6040;49.358;11.140;2023-03-11T13:36:48;4.90;99.90
11961;DHT22;6040;49.358;11.140;2023-03-11T13:39:40;5.00;99.90
11961;DHT22;6040;49.358;11.140;2023-03-11T13:42:16;5.10;99.70
11961;DHT22;6040;49.358;11.140;2023-03-11T13:44:46;5.20;99.60
11961;DHT22;6040;49.358;11.140;2023-03-11T13:47:16;5.20;99.70
11961;DHT22;6040;49.358;11.140;2023-03-11T13:49:48;5.90;99.90
11961;DHT22;6040;49.358;11.140;2023-03-11T13:52:23;5.10;99.50
11961;DHT22;6040;49.358;11.140;2023-03-11T13:54:54;4.90;99.50
11961;DHT22;6040;49.358;11.140;2023-03-11T13:57:26;5.20;99.90
11961;DHT22;6040;49.358;11.140;2023-03-11T13:59:54;5.60;99.90
11961;DHT22;6040;49.358;11.140;2023-03-11T14:02:25;4.50;99.90
11961;DHT22;6040;49.358;11.140;2023-03-11T14:04:55;4.50;99.90
11961;DHT22;6040;49.358;11.140;2023-03-11T14:07:27;4.40;99.90
11961;DHT22;6040;49.358;11.140;2023-03-11T14:10:16;4.40;99.90
11961;DHT22;6040;49.358;11.140;2023-03-11T14:12:43;4.30;99.90
11961;DHT22;6040;49.358;11.140;2023-03-11T14:15:14;4.30;99.90
11961;DHT22;6040;49.358;11.140;2023-03-11T14:17:43;4.90;99.90
11961;DHT22;6040;49.358;11.140;2023-03-11T14:20:13;5.40;99.90
11961;DHT22;6040;49.358;11.140;2023-03-11T14:22:43;4.30;99.90
11961;DHT22;6040;49.358;11.140;2023-03-11T14:25:18;4.30;99.90
11961;DHT22;6040;49.358;11.140;2023-03-11T14:27:51;4.20;99.90
11961;DHT22;6040;49.358;11.140;2023-03-11T14:30:24;4.90;99.90
11961;DHT22;6040;49.358;11.140;2023-03-11T14:32:58;4.20;99.90
11961;DHT22;6040;49.358;11.140;2023-03-11T14:35:25;4.20;99.90
11961;DHT22;6040;49.358;11.140;2023-03-11T14:37:52;4.20;99.90
11961;DHT22;6040;49.358;11.140;2023-03-11T14:40:23;4.10;99.90
11961;DHT22;6040;49.358;11.140;2023-03-11T14:42:51;4.10;99.90
11961;DHT22;6040;49.358;11.140;2023-03-11T14:45:20;4.20;99.90
11961;DHT22;6040;49.358;11.140;2023-03-11T14:47:52;4.30;99.70
11961;DHT22;6040;49.358;11.140;2023-03-11T14:50:23;4.40;99.50
11961;DHT22;6040;49.358;11.140;2023-03-11T14:52:54;4.50;99.60
11961;DHT22;6040;49.358;11.140;2023-03-11T14:55:26;4.60;99.20
11961;DHT22;6040;49.358;11.140;2023-03-11T14:57:56;4.60;99.20
11961;DHT22;6040;49.358;11.140;2023-03-11T15:00:29;4.60;99.40
11961;DHT22;6040;49.358;11.140;2023-03-11T15:03:01;6.00;99.90
11961;DHT22;6040;49.358;11.140;2023-03-11T15:05:36;4.60;99.40
11961;DHT22;6040;49.358;11.140;2023-03-11T15:08:07;4.50;99.10
11961;DHT22;6040;49.358;11.140;2023-03-11T15:10:36;4.50;99.60
11961;DHT22;6040;49.358;11.140;2023-03-11T15:13:06;4.50;99.40
11961;DHT22;6040;49.358;11.140;2023-03-11T15:15:33;4.50;99.50
11961;DHT22;6040;49.358;11.140;2023-03-11T15:18:00;4.50;99.50
11961;DHT22;6040;49.358;11.140;2023-03-11T15:20:30;5.00;99.70
11961;DHT22;6040;49.358;11.140;2023-03-11T15:23:00;4.50;99.10
11961;DHT22;6040;49.358;11.140;2023-03-11T15:25:29;4.40;98.90
11961;DHT22;6040;49.358;11.140;2023-03-11T15:27:56;4.30;98.60
11961;DHT22;6040;49.358;11.140;2023-03-11T15:30:25;4.30;98.70
11961;DHT22;6040;49.358;11.140;2023-03-11T15:32:52;4.20;98.60
11961;DHT22;6040;49.358;11.140;2023-03-11T15:35:21;4.20;98.50
11961;DHT22;6040;49.358;11.140;2023-03-11T15:37:49;4.10;98.40
11961;DHT22;6040;49.358;11.140;2023-03-11T15:40:23;4.10;98.60
11961;DHT22;6040;49.358;11.140;2023-03-11T15:43:15;4.10;98.90
11961;DHT22;6040;49.358;11.140;2023-03-11T15:45:44;4.10;98.80
11961;DHT22;6040;49.358;11.140;2023-03-11T15:48:13;4.00;99.20
11961;DHT22;6040;49.358;11.140;2023-03-11T15:50:46;4.00;99.00
11961;DHT22;6040;49.358;11.140;2023-03-11T15:53:13;5.10;99.50
11961;DHT22;6040;49.358;11.140;2023-03-11T15:55:42;3.80;99.10
11961;DHT22;6040;49.358;11.140;2023-03-11T15:58:13;3.80;99.30
11961;DHT22;6040;49.358;11.140;2023-03-11T16:00:45;3.70;99.30
11961;DHT22;6040;49.358;11.140;2023-03-11T16:03:12;3.70;99.60
11961;DHT22;6040;49.358;11.140;2023-03-11T16:05:39;3.70;99.90
11961;DHT22;6040;49.358;11.140;2023-03-11T16:08:06;3.70;99.80
11961;DHT22;6040;49.358;11.140;2023-03-11T16:10:32;3.60;99.90
11961;DHT22;6040;49.358;11.140;2023-03-11T16:13:01;3.70;99.80